createdAt,value
2023-03-24T00:01:45.773Z,99591.34
2023-03-24T00:04:53.328Z,99592.97
2023-03-24T00:08:03.012Z,99594.63
2023-03-24T00:11:11.724Z,99600.53
2023-03-24T00:14:16.845Z,99598.66
2023-03-24T00:17:25.604Z,99597.13
2023-03-24T00:20:33.081Z,99605.16
2023-03-24T00:23:42.856Z,99605.25
2023-03-24T00:26:48.790Z,99602.72
2023-03-24T00:29:54.085Z,99604.44
2023-03-24T00:33:01.942Z,99605.88
2023-03-24T00:36:12.073Z,99619.66
2023-03-24T00:39:20.829Z,99614.97
2023-03-24T00:42:26.235Z,99620.88
2023-03-24T00:45:34.553Z,99629.50
2023-03-24T00:48:42.100Z,99622.78
2023-03-24T00:51:47.355Z,99622.38
2023-03-24T00:54:58.303Z,99629.22
2023-03-24T00:58:03.528Z,99625.75
2023-03-24T01:01:09.476Z,99631.81
2023-03-24T01:04:15.019Z,99621.25
2023-03-24T01:07:20.461Z,99627.50
2023-03-24T01:10:27.985Z,99632.69
2023-03-24T01:13:34.326Z,99623.41
2023-03-24T01:16:39.588Z,99628.44
2023-03-24T01:19:44.837Z,99624.09
2023-03-24T01:22:50.325Z,99618.09
2023-03-24T01:25:56.883Z,99613.56
2023-03-24T01:29:02.028Z,99612.72
2023-03-24T01:32:07.730Z,99615.41
2023-03-24T01:35:14.110Z,99610.59
2023-03-24T01:38:19.365Z,99614.13
2023-03-24T01:41:25.974Z,99610.84
2023-03-24T01:44:34.702Z,99609.31
2023-03-24T01:47:40.044Z,99606.00
2023-03-24T01:50:47.515Z,99604.16
2023-03-24T01:54:02.819Z,99614.06
2023-03-24T01:57:13.436Z,99605.78
2023-03-24T02:00:22.297Z,99612.06
2023-03-24T02:03:54.106Z,99615.28
2023-03-24T02:07:02.704Z,99611.91
2023-03-24T02:10:10.906Z,99612.50
2023-03-24T02:13:17.816Z,99622.66
2023-03-24T02:16:49.398Z,99615.16
2023-03-24T02:20:30.040Z,99605.88
2023-03-24T02:23:58.619Z,99592.91
2023-03-24T02:27:09.842Z,99594.44
2023-03-24T02:30:34.141Z,99592.59
2023-03-24T02:34:12.395Z,99597.28
2023-03-24T02:37:49.090Z,99585.06
2023-03-24T02:41:02.250Z,99586.91
2023-03-24T02:44:10.479Z,99584.63
2023-03-24T02:47:21.767Z,99568.13
2023-03-24T02:50:32.080Z,99573.25
2023-03-24T02:53:43.215Z,99585.34
2023-03-24T02:57:07.080Z,99589.88
2023-03-24T03:00:36.272Z,99593.41
2023-03-24T03:03:48.589Z,99593.69
2023-03-24T03:06:56.818Z,99605.63
2023-03-24T03:10:07.238Z,99600.25
2023-03-24T03:13:17.570Z,99589.84
2023-03-24T03:16:25.933Z,99584.72
2023-03-24T03:19:34.774Z,99586.56
2023-03-24T03:22:43.244Z,99596.69
2023-03-24T03:25:51.994Z,99598.81
2023-03-24T03:29:01.851Z,99591.06
2023-03-24T03:32:10.834Z,99591.25
2023-03-24T03:35:17.939Z,99601.22
2023-03-24T03:38:26.789Z,99590.28
2023-03-24T03:41:32.695Z,99602.41
2023-03-24T03:44:39.221Z,99608.81
2023-03-24T03:47:44.514Z,99620.88
2023-03-24T03:50:55.292Z,99621.03
2023-03-24T03:54:11.718Z,99621.63
2023-03-24T03:57:17.755Z,99630.03
2023-03-24T04:00:44.376Z,99631.19
2023-03-24T04:04:56.281Z,99630.38
2023-03-24T04:08:25.261Z,99620.84
2023-03-24T04:11:50.719Z,99613.88
2023-03-24T04:15:38.436Z,99629.81
2023-03-24T04:19:38.109Z,99624.00
2023-03-24T04:22:54.194Z,99611.59
2023-03-24T04:26:10.518Z,99623.06
2023-03-24T04:29:22.465Z,99610.50
2023-03-24T04:32:32.552Z,99615.28
2023-03-24T04:35:44.068Z,99615.41
2023-03-24T04:39:14.146Z,99611.59
2023-03-24T04:42:27.208Z,99613.56
2023-03-24T04:45:33.609Z,99611.81
2023-03-24T04:48:56.219Z,99607.44
2023-03-24T04:52:13.388Z,99617.00
2023-03-24T04:55:48.613Z,99622.69
2023-03-24T04:58:56.994Z,99625.34
2023-03-24T05:02:02.217Z,99614.00
2023-03-24T05:05:08.456Z,99608.75
2023-03-24T05:08:23.059Z,99610.50
2023-03-24T05:11:29.758Z,99619.34
2023-03-24T05:14:44.207Z,99599.78
2023-03-24T05:17:49.462Z,99604.03
2023-03-24T05:20:54.948Z,99603.47
2023-03-24T05:24:02.184Z,99599.53
2023-03-24T05:27:07.249Z,99603.53
2023-03-24T05:30:13.494Z,99603.59
2023-03-24T05:33:20.394Z,99606.34
2023-03-24T05:36:26.193Z,99608.41
2023-03-24T05:39:38.269Z,99604.16
2023-03-24T05:42:54.083Z,99601.13
2023-03-24T05:46:02.410Z,99597.25
2023-03-24T05:49:11.227Z,99599.41
2023-03-24T05:52:20.634Z,99587.44
2023-03-24T05:55:29.084Z,99597.13
2023-03-24T05:58:40.883Z,99600.69
2023-03-24T06:01:46.476Z,99593.41
2023-03-24T06:04:58.912Z,99585.28
2023-03-24T06:08:05.410Z,99590.34
2023-03-24T06:11:15.406Z,99581.16
2023-03-24T06:14:31.466Z,99588.81
2023-03-24T06:17:46.281Z,99590.22
2023-03-24T06:21:02.564Z,99590.59
2023-03-24T06:24:18.201Z,99595.72
2023-03-24T06:27:26.228Z,99587.94
2023-03-24T06:30:32.495Z,99589.72
2023-03-24T06:33:38.827Z,99599.72
2023-03-24T06:36:45.005Z,99593.88
2023-03-24T06:39:51.482Z,99597.38
2023-03-24T06:43:01.758Z,99589.19
2023-03-24T06:46:10.190Z,99594.88
2023-03-24T06:49:18.866Z,99584.22
2023-03-24T06:52:24.821Z,99583.63
2023-03-24T06:55:30.282Z,99578.97
2023-03-24T06:58:39.658Z,99581.19
2023-03-24T07:01:48.105Z,99585.44
2023-03-24T07:05:07.064Z,99582.72
2023-03-24T07:11:34.660Z,99584.47
2023-03-24T07:14:42.687Z,99581.88
2023-03-24T07:17:47.813Z,99580.97
2023-03-24T07:21:10.225Z,99573.72
2023-03-24T07:24:16.366Z,99586.38
2023-03-24T07:27:33.747Z,99587.00
2023-03-24T07:30:41.098Z,99586.19
2023-03-24T07:33:47.672Z,99594.75
2023-03-24T07:36:52.833Z,99595.09
2023-03-24T07:39:58.760Z,99596.94
2023-03-24T07:43:07.697Z,99595.91
2023-03-24T07:46:36.055Z,99583.75
2023-03-24T07:49:41.195Z,99588.44
2023-03-24T07:52:51.222Z,99587.63
2023-03-24T07:55:58.717Z,99587.31
2023-03-24T07:59:03.867Z,99591.09
2023-03-24T08:02:42.901Z,99585.91
2023-03-24T08:06:20.549Z,99577.44
2023-03-24T08:09:29.937Z,99584.16
2023-03-24T08:12:34.974Z,99582.19
2023-03-24T08:15:40.137Z,99582.34
2023-03-24T08:18:46.740Z,99583.38
2023-03-24T08:21:52.134Z,99579.47
2023-03-24T08:24:57.267Z,99561.56
2023-03-24T08:28:02.446Z,99566.72
2023-03-24T08:31:07.755Z,99561.91
2023-03-24T08:34:14.739Z,99568.09
2023-03-24T08:37:19.887Z,99568.56
2023-03-24T08:40:26.894Z,99544.16
2023-03-24T08:43:32.713Z,99556.03
2023-03-24T08:46:38.173Z,99560.13
2023-03-24T08:49:44.712Z,99560.06
2023-03-24T08:52:50.258Z,99542.47
2023-03-24T08:55:55.536Z,99549.41
2023-03-24T08:59:00.782Z,99558.63
2023-03-24T09:02:06.057Z,99551.03
2023-03-24T09:05:15.524Z,99536.38
2023-03-24T09:08:21.258Z,99536.63
2023-03-24T09:11:26.757Z,99529.63
2023-03-24T09:14:31.936Z,99528.06
2023-03-24T09:17:37.607Z,99510.31
2023-03-24T09:20:44.165Z,99504.88
2023-03-24T09:23:49.276Z,99499.13
2023-03-24T09:26:54.386Z,99495.81
2023-03-24T09:29:59.710Z,99501.72
2023-03-24T09:33:04.983Z,99498.88
2023-03-24T09:36:12.413Z,99493.81
2023-03-24T09:39:19.709Z,99473.47
2023-03-24T09:42:26.640Z,99473.19
2023-03-24T09:45:34.445Z,99462.34
2023-03-24T09:48:43.923Z,99453.44
2023-03-24T09:51:50.644Z,99451.94
2023-03-24T09:54:58.676Z,99456.94
2023-03-24T09:58:08.448Z,99447.00
2023-03-24T10:01:16.676Z,99435.69
2023-03-24T10:04:23.614Z,99432.63
2023-03-24T10:07:34.689Z,99427.94
2023-03-24T10:10:45.118Z,99418.78
2023-03-24T10:13:58.800Z,99419.00
2023-03-24T10:17:10.129Z,99420.75
2023-03-24T10:20:26.517Z,99415.94
2023-03-24T10:23:38.419Z,99407.19
2023-03-24T10:26:49.544Z,99396.34
2023-03-24T10:29:59.198Z,99386.81
2023-03-24T10:33:04.721Z,99388.19
2023-03-24T10:36:14.793Z,99390.81
2023-03-24T10:39:28.426Z,99387.75
2023-03-24T10:42:43.301Z,99376.78
2023-03-24T10:45:51.270Z,99373.63
2023-03-24T10:49:10.131Z,99369.06
2023-03-24T10:52:15.745Z,99364.59
2023-03-24T10:55:24.781Z,99367.56
2023-03-24T10:58:37.992Z,99363.72
2023-03-24T11:01:43.383Z,99370.81
2023-03-24T11:04:54.515Z,99356.19
2023-03-24T11:08:12.608Z,99343.38
2023-03-24T11:11:31.908Z,99340.34
2023-03-24T11:14:46.352Z,99334.50
2023-03-24T11:17:57.519Z,99330.44
2023-03-24T11:21:06.232Z,99314.72
2023-03-24T11:24:14.791Z,99328.03
2023-03-24T11:27:21.695Z,99308.81
2023-03-24T11:30:27.627Z,99305.41
2023-03-24T11:33:36.366Z,99313.19
2023-03-24T11:36:47.123Z,99300.91
2023-03-24T11:40:18.932Z,99299.00
2023-03-24T11:43:27.271Z,99283.97
2023-03-24T11:46:32.487Z,99282.59
2023-03-24T11:49:40.748Z,99284.78
2023-03-24T11:52:49.110Z,99272.47
2023-03-24T11:55:57.413Z,99274.34
2023-03-24T11:59:10.234Z,99269.22
2023-03-24T12:02:22.408Z,99253.81
2023-03-24T12:05:33.955Z,99235.59
2023-03-24T12:08:47.954Z,99225.31
2023-03-24T12:12:25.331Z,99225.00
2023-03-24T12:15:42.610Z,99214.75
2023-03-24T12:18:57.412Z,99213.25
2023-03-24T12:22:11.003Z,99204.09
2023-03-24T12:25:44.047Z,99190.78
2023-03-24T12:28:59.561Z,99190.09
2023-03-24T12:32:33.218Z,99184.03
2023-03-24T12:36:04.066Z,99180.75
2023-03-24T12:39:12.398Z,99168.22
2023-03-24T12:42:18.951Z,99150.72
2023-03-24T12:45:30.712Z,99146.66
2023-03-24T12:48:52.195Z,99135.16
2023-03-24T12:52:16.801Z,99129.06
2023-03-24T12:55:25.481Z,99122.91
2023-03-24T12:58:41.591Z,99116.03
2023-03-24T13:01:49.240Z,99108.91
2023-03-24T13:04:59.011Z,99110.81
2023-03-24T13:08:06.866Z,99110.50
2023-03-24T13:11:26.740Z,99085.34
2023-03-24T13:14:50.654Z,99081.84
2023-03-24T13:18:06.291Z,99071.31
2023-03-24T13:21:16.562Z,99063.00
2023-03-24T13:24:22.123Z,99064.84
2023-03-24T13:27:33.370Z,99038.63
2023-03-24T13:30:40.004Z,99038.88
2023-03-24T13:33:45.452Z,99027.53
2023-03-24T13:36:55.877Z,99027.91
2023-03-24T13:40:02.805Z,99023.81
2023-03-24T13:43:12.563Z,99000.38
2023-03-24T13:46:17.861Z,98989.00
2023-03-24T13:49:23.331Z,98975.66
2023-03-24T13:52:34.176Z,98959.16
2023-03-24T13:55:40.991Z,98945.59
2023-03-24T13:59:23.745Z,98944.34
2023-03-24T14:02:46.954Z,98913.53
2023-03-24T14:06:00.868Z,98915.06
2023-03-24T14:09:08.400Z,98903.44
2023-03-24T14:12:23.953Z,98894.78
2023-03-24T14:15:30.264Z,98869.75
2023-03-24T14:18:43.153Z,98850.44
2023-03-24T14:21:54.415Z,98831.78
2023-03-24T14:25:02.201Z,98823.31
2023-03-24T14:28:21.553Z,98815.88
2023-03-24T14:31:31.276Z,98806.06
2023-03-24T14:34:37.949Z,98799.56
2023-03-24T14:37:51.083Z,98781.72
2023-03-24T14:41:01.616Z,98765.72
2023-03-24T14:44:07.382Z,98758.47
2023-03-24T14:47:17.823Z,98753.41
2023-03-24T14:50:24.635Z,98744.19
2023-03-24T14:53:29.772Z,98750.50
2023-03-24T14:56:40.455Z,98750.03
2023-03-24T14:59:49.840Z,98752.59
2023-03-24T15:02:57.283Z,98739.31
2023-03-24T15:06:15.956Z,98728.78
2023-03-24T15:09:21.313Z,98719.84
2023-03-24T15:12:28.099Z,98705.78
2023-03-24T15:15:33.308Z,98692.31
2023-03-24T15:18:53.491Z,98680.63
2023-03-24T15:22:09.049Z,98674.53
2023-03-24T15:25:15.825Z,98659.25
2023-03-24T15:28:24.120Z,98645.44
2023-03-24T15:31:31.426Z,98630.06
2023-03-24T15:34:40.121Z,98624.25
2023-03-24T15:37:49.126Z,98617.28
2023-03-24T15:40:58.150Z,98605.53
2023-03-24T15:44:10.312Z,98603.22
2023-03-24T15:47:19.609Z,98592.91
2023-03-24T15:50:33.250Z,98582.75
2023-03-24T15:53:44.665Z,98577.94
2023-03-24T15:57:03.106Z,98563.47
2023-03-24T16:00:16.570Z,98554.56
2023-03-24T16:03:26.636Z,98551.94
2023-03-24T16:06:35.426Z,98544.97
2023-03-24T16:09:41.036Z,98539.69
2023-03-24T16:12:46.326Z,98542.53
2023-03-24T16:15:57.888Z,98534.91
2023-03-24T16:19:04.410Z,98537.28
2023-03-24T16:22:13.038Z,98533.28
2023-03-24T16:25:18.470Z,98522.94
2023-03-24T16:28:25.176Z,98523.25
2023-03-24T16:31:35.113Z,98513.69
2023-03-24T16:34:41.076Z,98509.06
2023-03-24T16:37:47.214Z,98503.34
2023-03-24T16:40:53.918Z,98505.03
2023-03-24T16:43:58.960Z,98494.59
2023-03-24T16:47:10.592Z,98498.94
2023-03-24T16:50:26.362Z,98484.16
2023-03-24T16:53:31.937Z,98486.53
2023-03-24T16:56:40.560Z,98482.06
2023-03-24T16:59:46.132Z,98484.66
2023-03-24T17:02:53.953Z,98483.84
2023-03-24T17:05:59.760Z,98469.41
2023-03-24T17:09:06.042Z,98474.66
2023-03-24T17:12:11.859Z,98467.28
2023-03-24T17:15:20.056Z,98472.97
2023-03-24T17:18:26.756Z,98462.75
2023-03-24T17:21:32.254Z,98463.56
2023-03-24T17:24:41.846Z,98468.56
2023-03-24T17:27:47.300Z,98450.31
2023-03-24T17:30:52.550Z,98456.72
2023-03-24T17:34:03.764Z,98456.63
2023-03-24T17:37:15.191Z,98455.00
2023-03-24T17:40:23.217Z,98448.53
2023-03-24T17:43:28.499Z,98455.50
2023-03-24T17:46:33.716Z,98448.13
2023-03-24T17:49:40.448Z,98445.72
2023-03-24T17:52:47.789Z,98448.78
2023-03-24T17:55:53.114Z,98444.53
2023-03-24T17:58:59.894Z,98436.75
2023-03-24T18:02:05.584Z,98442.97
2023-03-24T18:05:13.501Z,98435.19
2023-03-24T18:08:18.890Z,98447.16
2023-03-24T18:11:24.099Z,98441.34
2023-03-24T18:14:29.321Z,98436.91
2023-03-24T18:17:34.423Z,98429.84
2023-03-24T18:20:41.323Z,98437.25
2023-03-24T18:23:47.159Z,98446.19
2023-03-24T18:26:52.567Z,98441.41
2023-03-24T18:29:57.969Z,98430.00
2023-03-24T18:33:03.515Z,98433.16
2023-03-24T18:36:11.181Z,98431.44
2023-03-24T18:39:16.456Z,98436.13
2023-03-24T18:42:21.987Z,98446.53
2023-03-24T18:45:27.042Z,98442.13
2023-03-24T18:48:32.234Z,98442.69
2023-03-24T18:51:39.069Z,98435.06
2023-03-24T18:54:44.611Z,98437.41
2023-03-24T18:57:49.815Z,98434.16
2023-03-24T19:00:56.961Z,98446.38
2023-03-24T19:04:02.407Z,98443.31
2023-03-24T19:07:14.533Z,98437.69
2023-03-24T19:10:19.821Z,98443.81
2023-03-24T19:13:25.019Z,98428.56
2023-03-24T19:16:30.437Z,98425.88
2023-03-24T19:19:35.637Z,98434.22
2023-03-24T19:22:42.328Z,98424.13
2023-03-24T19:25:47.928Z,98435.94
2023-03-24T19:28:53.167Z,98450.56
2023-03-24T19:31:58.458Z,98435.06
2023-03-24T19:35:04.321Z,98445.53
2023-03-24T19:38:11.705Z,98435.22
2023-03-24T19:41:17.438Z,98427.75
2023-03-24T19:44:23.985Z,98435.28
2023-03-24T19:47:28.840Z,98435.53
2023-03-24T19:50:34.114Z,98447.34
2023-03-24T19:53:41.091Z,98446.88
2023-03-24T19:56:46.294Z,98441.59
2023-03-24T19:59:51.483Z,98441.34
2023-03-24T20:02:56.698Z,98431.28
2023-03-24T20:06:08.068Z,98435.16
2023-03-24T20:09:14.741Z,98444.50
2023-03-24T20:12:20.440Z,98431.63
2023-03-24T20:15:26.915Z,98431.94
2023-03-24T20:18:33.624Z,98410.53
2023-03-24T20:21:38.945Z,98438.34
2023-03-24T20:24:47.897Z,98419.97
2023-03-24T20:27:52.985Z,98430.53
2023-03-24T20:31:01.069Z,98413.19
2023-03-24T20:34:06.657Z,98421.34
2023-03-24T20:37:11.822Z,98427.19
2023-03-24T20:40:18.913Z,98415.56
2023-03-24T20:43:25.290Z,98421.16
2023-03-24T20:46:30.397Z,98412.72
2023-03-24T20:49:35.637Z,98405.03
2023-03-24T20:52:41.433Z,98405.91
2023-03-24T20:55:57.197Z,98410.34
2023-03-24T20:59:06.622Z,98406.44
2023-03-24T21:02:12.336Z,98407.31
2023-03-24T21:05:17.464Z,98406.81
2023-03-24T21:08:22.634Z,98399.13
2023-03-24T21:11:31.297Z,98397.56
2023-03-24T21:14:36.454Z,98396.19
2023-03-24T21:17:41.617Z,98385.00
2023-03-24T21:20:55.272Z,98396.66
2023-03-24T21:24:04.462Z,98382.72
2023-03-24T21:27:13.315Z,98386.09
2023-03-24T21:30:19.570Z,98383.38
2023-03-24T21:33:24.917Z,98384.69
2023-03-24T21:36:31.387Z,98384.44
2023-03-24T21:39:37.114Z,98391.38
2023-03-24T21:42:43.674Z,98382.34
2023-03-24T21:45:54.562Z,98376.38
2023-03-24T21:49:01.146Z,98371.22
2023-03-24T21:52:06.812Z,98388.00
2023-03-24T21:55:14.751Z,98386.72
2023-03-24T21:58:21.641Z,98386.72
2023-03-24T22:01:26.676Z,98388.19
2023-03-24T22:04:31.919Z,98395.13
2023-03-24T22:07:39.519Z,98389.75
2023-03-24T22:10:46.020Z,98403.13
2023-03-24T22:13:52.246Z,98399.91
2023-03-24T22:16:57.475Z,98414.94
2023-03-24T22:20:03.776Z,98389.97
2023-03-24T22:23:09.452Z,98422.06
2023-03-24T22:26:16.841Z,98437.84
2023-03-24T22:29:23.625Z,98437.53
2023-03-24T22:32:29.214Z,98436.31
2023-03-24T22:35:34.453Z,98436.41
2023-03-24T22:38:39.596Z,98447.16
2023-03-24T22:41:45.002Z,98460.66
2023-03-24T22:44:51.456Z,98465.72
2023-03-24T22:47:56.612Z,98466.63
2023-03-24T22:51:01.818Z,98479.09
2023-03-24T22:54:07.036Z,98481.06
2023-03-24T22:57:13.304Z,98486.19
2023-03-24T23:00:21.482Z,98492.56
2023-03-24T23:03:26.661Z,98499.00
2023-03-24T23:06:32.311Z,98516.75
2023-03-24T23:09:37.922Z,98521.94
2023-03-24T23:12:44.254Z,98532.81
2023-03-24T23:15:52.362Z,98554.72
2023-03-24T23:18:57.647Z,98562.19
2023-03-24T23:22:04.394Z,98572.84
2023-03-24T23:25:10.845Z,98599.44
2023-03-24T23:28:16.375Z,98630.16
2023-03-24T23:31:25.036Z,98631.78
2023-03-24T23:34:30.242Z,98642.28
2023-03-24T23:37:36.095Z,98668.53
2023-03-24T23:40:41.488Z,98686.69
2023-03-24T23:43:50.197Z,98690.94
2023-03-24T23:46:56.712Z,98707.22
2023-03-24T23:50:01.957Z,98718.66
2023-03-24T23:53:07.357Z,98734.19
2023-03-24T23:56:14.986Z,98744.31
2023-03-24T23:59:20.221Z,98787.09
